Home > Products > Valid Products > TAF

000
FTUS42 KKEY 212300
TAFEYW
TAF
KEYW 212320Z 2200/2224 10010KT P6SM SCT025=



000
FTUS42 KKEY 212300
TAFEYW
TAF
KEYW 212320Z 2200/2224 10010KT P6SM SCT025=



000
FTUS42 KKEY 212000 AAB
TAFEYW
TAF AMD
KEYW 212026Z 2120/2218 06007KT P6SM VCTS SCT025CB
     FM220200 10007KT P6SM FEW025=



000
FTUS42 KKEY 212000 AAB
TAFEYW
TAF AMD
KEYW 212026Z 2120/2218 06007KT P6SM VCTS SCT025CB
     FM220200 10007KT P6SM FEW025=



000
FTUS42 KKEY 211800 AAA
TAFEYW
TAF AMD
KEYW 211823Z 2118/2218 06007KT P6SM VCTS SCT025CB
      TEMPO 2120/2123 VRB10G19KT 1SM +TSRA BKN025CB
     FM220200 10007KT P6SM FEW025=



000
FTUS42 KKEY 211800 AAA
TAFEYW
TAF AMD
KEYW 211823Z 2118/2218 06007KT P6SM VCTS SCT025CB
      TEMPO 2120/2123 VRB10G19KT 1SM +TSRA BKN025CB
     FM220200 10007KT P6SM FEW025=



000
FTUS42 KKEY 211700
TAFEYW
TAF
KEYW 211720Z 2118/2218 11006KT P6SM VCSH SCT025 SCT100
      TEMPO 2118/2119 BKN025
     FM211900 11007KT P6SM VCTS SCT030CB
      TEMPO 2120/2123 VRB10G19KT 1SM +TSRA BKN025CB
     FM220200 10007KT P6SM FEW028=



000
FTUS42 KKEY 211400 AAB
TAFEYW
TAF AMD
KEYW 211454Z 2115/2212 11006KT P6SM VCSH SCT025 SCT100
      TEMPO 2117/2121 VRB12G22KT 2SM TSRA BKN020CB
     FM220200 10007KT P6SM FEW028=



000
FTUS42 KKEY 211400 AAB
TAFEYW
TAF AMD
KEYW 211454Z 2115/2212 11006KT P6SM VCSH SCT025 SCT100
      TEMPO 2117/2121 VRB12G22KT 2SM TSRA BKN020CB
     FM220200 10007KT P6SM FEW028=



000
FTUS42 KKEY 211400 AAA
TAFEYW
TAF AMD
KEYW 211418Z 2114/2212 11006KT P6SM VCSH SCT025 SCT100
     FM220200 10007KT P6SM FEW028=



000
FTUS42 KKEY 211400 AAA
TAFEYW
TAF AMD
KEYW 211418Z 2114/2212 11006KT P6SM VCSH SCT025 SCT100
     FM220200 10007KT P6SM FEW028=



000
FTUS42 KKEY 211100
TAFEYW
TAF
KEYW 211135Z 2112/2212 09005KT P6SM FEW025
     FM211600 09006KT P6SM VCSH SCT025 SCT100
     FM220200 10007KT P6SM FEW028=



000
FTUS42 KKEY 211100
TAFEYW
TAF
KEYW 211135Z 2112/2212 09005KT P6SM FEW025
     FM211600 09006KT P6SM VCSH SCT025 SCT100
     FM220200 10007KT P6SM FEW028=



000
FTUS42 KKEY 211000 AAA
TAFEYW
TAF AMD
KEYW 211013Z 2110/2206 07006KT P6SM FEW025
     FM211600 09006KT P6SM VCSH SCT025 SCT100
     FM220200 10007KT P6SM FEW028=



000
FTUS42 KKEY 211000 AAA
TAFEYW
TAF AMD
KEYW 211013Z 2110/2206 07006KT P6SM FEW025
     FM211600 09006KT P6SM VCSH SCT025 SCT100
     FM220200 10007KT P6SM FEW028=



000
FTUS42 KKEY 210500
TAFEYW
TAF
KEYW 210527Z 2106/2206 07006KT P6SM SCT027 SCT100
      TEMPO 2106/2107 VRB10G18KT 3SM SHRA BKN015 BKN023 BKN030
     FM210700 09006KT P6SM SCT025=



000
FTUS42 KKEY 210500
TAFEYW
TAF
KEYW 210527Z 2106/2206 07006KT P6SM SCT027 SCT100
      TEMPO 2106/2107 VRB10G18KT 3SM SHRA BKN015 BKN023 BKN030
     FM210700 09006KT P6SM SCT025=



000
FTUS42 KKEY 210400 AAA
TAFEYW
TAF AMD
KEYW 210447Z 2105/2124 04006KT P6SM SCT025 SCT100
      TEMPO 2105/2106 VRB10G18KT 3SM SHRA BKN015 BKN023 BKN030
     FM210600 09006KT P6SM SCT025=



000
FTUS42 KKEY 210400 AAA
TAFEYW
TAF AMD
KEYW 210447Z 2105/2124 04006KT P6SM SCT025 SCT100
      TEMPO 2105/2106 VRB10G18KT 3SM SHRA BKN015 BKN023 BKN030
     FM210600 09006KT P6SM SCT025=



000
FTUS42 KKEY 202300
TAFEYW
TAF
KEYW 202338Z 2100/2124 04008KT P6SM FEW025 BKN100
     FM210400 09006KT P6SM SCT025 SCT100=



000
FTUS42 KKEY 202300
TAFEYW
TAF
KEYW 202338Z 2100/2124 04008KT P6SM FEW025 BKN100
     FM210400 09006KT P6SM SCT025 SCT100=



000
FTUS42 KKEY 201700 AAA
TAFEYW
TAF AMD
KEYW 201749Z 2018/2118 VRB05KT P6SM VCTS SCT022CB BKN040 BKN060
      TEMPO 2018/2020 1SM +TSRA BKN022CB OVC040
     FM210000 09006KT P6SM FEW022
     FM210900 10007KT P6SM VCSH SCT022=



000
FTUS42 KKEY 201700 AAA
TAFEYW
TAF AMD
KEYW 201749Z 2018/2118 VRB05KT P6SM VCTS SCT022CB BKN040 BKN060
      TEMPO 2018/2020 1SM +TSRA BKN022CB OVC040
     FM210000 09006KT P6SM FEW022
     FM210900 10007KT P6SM VCSH SCT022=



000
FTUS42 KKEY 201700
TAFEYW
TAF
KEYW 201724Z 2018/2118 VRB05KT P6SM VCTS SCT029CB SCT050 SCT250
     FM210000 09006KT P6SM FEW029
     FM210900 10007KT P6SM VCSH SCT029=



000
FTUS42 KKEY 201700
TAFEYW
TAF
KEYW 201724Z 2018/2118 VRB05KT P6SM VCTS SCT029CB SCT050 SCT250
     FM210000 09006KT P6SM FEW029
     FM210900 10007KT P6SM VCSH SCT029=



000
FTUS42 KKEY 201500 AAA
TAFEYW
TAF AMD
KEYW 201502Z 2015/2112 12007KT P6SM FEW029
     FM201600 09006KT P6SM VCTS SCT029CB
     FM210300 09006KT P6SM FEW029=



000
FTUS42 KKEY 201500 AAA
TAFEYW
TAF AMD
KEYW 201502Z 2015/2112 12007KT P6SM FEW029
     FM201600 09006KT P6SM VCTS SCT029CB
     FM210300 09006KT P6SM FEW029=



000
FTUS42 KKEY 201100
TAFEYW
TAF
KEYW 201130Z 2012/2112 11006KT P6SM FEW027
     FM201600 09006KT P6SM VCTS SCT027CB
     FM210300 09006KT P6SM FEW027=



000
FTUS42 KKEY 201100
TAFEYW
TAF
KEYW 201130Z 2012/2112 11006KT P6SM FEW027
     FM201600 09006KT P6SM VCTS SCT027CB
     FM210300 09006KT P6SM FEW027=



000
FTUS42 KKEY 200800 AAA
TAFEYW
TAF AMD
KEYW 200838Z 2009/2106 12006KT P6SM FEW025
     FM201500 08006KT P6SM SCT025=



000
FTUS42 KKEY 200800 AAA
TAFEYW
TAF AMD
KEYW 200838Z 2009/2106 12006KT P6SM FEW025
     FM201500 08006KT P6SM SCT025=



000
FTUS42 KKEY 200500
TAFEYW
TAF
KEYW 200521Z 2006/2106 14006KT P6SM FEW025
     FM201500 07008KT P6SM SCT025=



000
FTUS42 KKEY 200500
TAFEYW
TAF
KEYW 200521Z 2006/2106 14006KT P6SM FEW025
     FM201500 07008KT P6SM SCT025=



000
FTUS42 KKEY 192300
TAFEYW
TAF
KEYW 192320Z 2000/2024 15006KT P6SM FEW020
     FM201500 07008KT P6SM SCT025 SCT100=



000
FTUS42 KKEY 192300
TAFEYW
TAF
KEYW 192320Z 2000/2024 15006KT P6SM FEW020
     FM201500 07008KT P6SM SCT025 SCT100=



000
FTUS42 KKEY 191700
TAFEYW
TAF
KEYW 191733Z 1918/2018 17005KT P6SM FEW026
     FM191900 07006KT P6SM VCSH SCT024 SCT030 BKN050
     FM200200 12006KT P6SM FEW025 BKN150=



000
FTUS42 KKEY 191700
TAFEYW
TAF
KEYW 191733Z 1918/2018 17005KT P6SM FEW026
     FM191900 07006KT P6SM VCSH SCT024 SCT030 BKN050
     FM200200 12006KT P6SM FEW025 BKN150=



000
FTUS42 KKEY 191400 AAA
TAFEYW
TAF AMD
KEYW 191455Z 1915/2012 17005KT P6SM FEW026
     FM191900 07006KT P6SM VCSH SCT024 SCT030 BKN050
     FM200200 12006KT P6SM FEW025 BKN150=



000
FTUS42 KKEY 191400 AAA
TAFEYW
TAF AMD
KEYW 191455Z 1915/2012 17005KT P6SM FEW026
     FM191900 07006KT P6SM VCSH SCT024 SCT030 BKN050
     FM200200 12006KT P6SM FEW025 BKN150=



000
FTUS42 KKEY 191100
TAFEYW
TAF
KEYW 191120Z 1912/2012 13008KT P6SM FEW026
     FM191900 12006KT P6SM VCSH SCT024 SCT030 BKN050=



000
FTUS42 KKEY 191100
TAFEYW
TAF
KEYW 191120Z 1912/2012 13008KT P6SM FEW026
     FM191900 12006KT P6SM VCSH SCT024 SCT030 BKN050=



000
FTUS42 KKEY 190800 AAA
TAFEYW
TAF AMD
KEYW 190836Z 1909/2006 13008KT P6SM SCT025=



000
FTUS42 KKEY 190800 AAA
TAFEYW
TAF AMD
KEYW 190836Z 1909/2006 13008KT P6SM SCT025=



000
FTUS42 KKEY 190500
TAFEYW
TAF
KEYW 190524Z 1906/2006 13009KT P6SM VCSH SCT025
     FM190900 13008KT P6SM SCT025=



000
FTUS42 KKEY 190500
TAFEYW
TAF
KEYW 190524Z 1906/2006 13009KT P6SM VCSH SCT025
     FM190900 13008KT P6SM SCT025=



    US Dept of Commerce
    National Oceanic and Atmospheric Administration
    National Weather Service
    1325 East West Highway
    Silver Spring, MD 20910
    Page Author: NWS Internet Services Team
Disclaimer
Information Quality
Credits
Glossary
Privacy Policy
Freedom of Information Act (FOIA)
About Us
Career Opportunities